Flight Track Log - Related Links

Times and Time Zones

All times are in EDT time to prevent confusion due to time zone crossing. See the DAL3676 flight status page for this flight to view local times or setup timezone preferences in your user account.

Time Position Orientation Groundspeed Altitude Reporting Facility
EDT Latitude Longitude Course Direction KTS MPH feet Rate Location/Type
Fri 07:07:44 PM 34.7964 -86.7586 North 267 307 7,200  Level Memphis Center
Fri 07:08:44 PM 34.8694 -86.7528 North 267 307 9,900 1,950 Climbing Memphis Center
Fri 07:09:44 PM 34.9528 -86.7492 North 279 321 11,100 1,100 Climbing Memphis Center
Fri 07:10:44 PM 35.0486 -86.7453 North 310 357 12,100 1,150 Climbing Memphis Center
Fri 07:11:00 PM 35.2798 -86.7254 North  Level FlightAware Approximate
Fri 07:11:44 PM 35.1528 -86.7381 North 348 400 13,400  Level Memphis Center
Fri 07:12:00 PM 35.3876 -86.7167 North  Level FlightAware Approximate
Fri 07:12:44 PM 35.2589 -86.7336 North 377 434 14,900  Level Memphis Center
Fri 07:13:00 PM 35.4957 -86.7167 North  Level FlightAware Approximate
Fri 07:13:44 PM 35.3778 -86.7283 North 382 440 16,500  Level Memphis Center
Fri 07:14:44 PM 35.4881 -86.7236 North 395 455 18,000 1,300 Climbing Memphis Center
Fri 07:15:44 PM 35.5983 -86.7161 North 395 455 19,100 1,050 Climbing Memphis Center
Fri 07:16:44 PM 35.7150 -86.7083 North 405 466 20,100 1,000 Climbing Memphis Center
Fri 07:17:44 PM 35.8336 -86.7006 North 416 479 21,100 1,000 Climbing Memphis Center
Fri 07:18:44 PM 35.9481 -86.6931 North 421 484 22,100 1,000 Climbing Memphis Center
Fri 07:19:44 PM 36.0689 -86.6875 North 421 484 23,100 1,000 Climbing Memphis Center
Fri 07:20:44 PM 36.1858 -86.6953 357° North 421 484 24,100 1,050 Climbing Memphis Center
Fri 07:21:44 PM 36.3058 -86.6639 12° North 421 484 25,200 1,050 Climbing Memphis Center
Fri 07:22:44 PM 36.4297 -86.6275 13° North 438 504 26,200 900 Climbing Memphis Center
Fri 07:23:44 PM 36.5497 -86.5933 13° North 446 513 27,000 750 Climbing Memphis Center
Fri 07:24:44 PM 36.6694 -86.5594 13° North 446 513 27,700 700 Climbing Memphis Center
Fri 07:25:44 PM 36.7956 -86.5225 13° North 452 520 28,400 650 Climbing Memphis Center
Fri 07:26:44 PM 36.9194 -86.4853 14° North 452 520 29,000 211 Climbing Memphis Center
Fri 07:28:35 PM 37.1578 -86.4103 14° North 482 555 29,000  Level Indianapolis Center
Fri 07:29:37 PM 37.2936 -86.3686 14° North 494 568 29,000  Level Indianapolis Center
Fri 07:30:38 PM 37.4289 -86.3369 11° North 492 566 29,000  Level Indianapolis Center
Fri 07:31:40 PM 37.5639 -86.3414 359° North 480 552 29,000  Level Indianapolis Center
Fri 07:32:42 PM 37.6794 -86.3886 342° North 456 525 29,000  Level Indianapolis Center
Fri 07:33:44 PM 37.7814 -86.4675 329° Northwest 433 498 29,000  Level Indianapolis Center
Fri 07:34:45 PM 37.8892 -86.5547 327° Northwest 433 498 29,000  Level Indianapolis Center
Fri 07:35:47 PM 37.9883 -86.6364 327° Northwest 427 491 29,000  Level Indianapolis Center
Fri 07:36:49 PM 38.0864 -86.7225 325° Northwest 426 490 29,000  Level Indianapolis Center
Fri 07:37:51 PM 38.1842 -86.8083 325° Northwest 430 495 29,000  Level Indianapolis Center
Fri 07:38:52 PM 38.3117 -86.7975 North 471 542 29,000  Level Indianapolis Center
Fri 07:39:54 PM 38.4689 -86.7531 12° North 485 558 29,000  Level Indianapolis Center
Fri 07:40:56 PM 38.6008 -86.7164 12° North 486 559 29,000  Level Indianapolis Center
Fri 07:41:58 PM 38.7328 -86.6792 12° North 487 560 29,000  Level Indianapolis Center
Fri 07:43:00 PM 38.8647 -86.6414 13° North 486 559 29,000  Level Indianapolis Center
Fri 07:44:01 PM 38.9969 -86.6042 12° North 485 558 29,000  Level Indianapolis Center
Fri 07:45:03 PM 39.1286 -86.5658 13° North 485 558 29,000  Level Indianapolis Center
Fri 07:46:05 PM 39.2519 -86.4833 27° Northeast 496 571 29,000  Level Indianapolis Center
Fri 07:47:07 PM 39.3986 -86.3775 29° Northeast 501 577 29,000  Level Indianapolis Center
Fri 07:48:08 PM 39.5197 -86.2889 29° Northeast 499 574 29,000  Level Indianapolis Center
Fri 07:49:10 PM 39.6403 -86.2006 29° Northeast 497 572 29,000  Level Indianapolis Center
Fri 07:50:12 PM 39.7608 -86.1106 30° Northeast 496 571 29,000  Level Indianapolis Center
Fri 07:51:13 PM 39.8814 -86.0219 29° Northeast 496 571 29,000  Level Indianapolis Center
Fri 07:52:15 PM 40.0044 -85.9306 30° Northeast 498 573 29,000  Level Indianapolis Center
Fri 07:53:17 PM 40.1264 -85.8381 30° Northeast 499 574 29,000 -145 Level Indianapolis Center
Fri 07:54:19 PM 40.2486 -85.7475 29° Northeast 499 574 28,700 -508 Descending Indianapolis Center
Fri 07:55:27 PM 40.3814 -85.6469 30° Northeast 495 570 27,900 -698 Descending Chicago Center
Fri 07:56:28 PM 40.4967 -85.5594 30° Northeast 484 557 27,200 -878 Descending Chicago Center
Fri 07:57:30 PM 40.6342 -85.4547 30° Northeast 478 550 26,100 -1,113 Descending Chicago Center
Fri 07:58:32 PM 40.7486 -85.3656 31° Northeast 479 551 24,900 -1,134 Descending Chicago Center
Fri 07:59:37 PM 40.8639 -85.2792 30° Northeast 480 552 23,700 -1,134 Descending Chicago Center
Fri 08:00:39 PM 40.9753 -85.1911 31° Northeast 474 545 22,500 -1,161 Descending Chicago Center
Fri 08:01:41 PM 41.0731 -85.0878 39° Northeast 460 529 21,300 -726 Descending Chicago Center
Fri 08:02:43 PM 41.1903 -84.9628 39° Northeast 456 525 21,000 -145 Descending Chicago Center
Fri 08:03:45 PM 41.2858 -84.8586 39° Northeast 451 519 21,000  Level Chicago Center
Fri 08:04:47 PM 41.3817 -84.7553 39° Northeast 449 517 21,000 -194 Level Chicago Center
Fri 08:05:49 PM 41.4717 -84.6600 38° Northeast 430 495 20,600 -566 Descending Chicago Center
Fri 08:06:33 PM 41.5397 -84.5839 40° Northeast 399 459 20,000 -1,212 Descending Cleveland Center
Fri 08:07:33 PM 41.6178 -84.4997 39° Northeast 369 425 18,500 -1,550 Descending Cleveland Center
Fri 08:08:33 PM 41.6789 -84.4172 45° Northeast 351 404 16,900 -1,685 Descending Cleveland Center
Fri 08:09:02 PM 41.7061 -84.3550 60° Northeast 346 398 16,000 -1,600 Descending Cleveland Center
Fri 08:09:33 PM 41.7244 -84.3031 65° Northeast 344 396 15,300 -1,714 Descending Cleveland Center
Fri 08:10:33 PM 41.7678 -84.1831 64° Northeast 334 384 13,400 -1,655 Descending Cleveland Center
Fri 08:11:29 PM 41.8106 -84.0825 60° Northeast 334 384 12,100 -650 Descending Cleveland Center
Fri 08:12:33 PM 41.8639 -83.9739 57° Northeast 323 372 12,100  Level Cleveland Center
Fri 08:13:31 PM 41.9269 -83.8878 45° Northeast 324 373 12,100  Level Cleveland Center
Fri 08:14:33 PM 41.9919 -83.8017 45° Northeast 318 366 12,100  Level Cleveland Center
Fri 08:15:33 PM 42.0567 -83.7183 44° Northeast 323 372 12,100  Level Cleveland Center
Fri 08:15:33 PM 42.0567 -83.7183 44° Northeast 318 366 12,100  Level Cleveland Center
Fri 08:16:33 PM 42.1011 -83.6197 59° Northeast 308 354 12,100  Level Cleveland Center
Fri 08:17:33 PM 42.1144 -83.5083 81° East 308 354 12,100  Level Cleveland Center
Fri 08:18:33 PM 42.1281 -83.3858 81° East 323 372 12,100 -240 Level Cleveland Center
Fri 08:18:48 PM 42.1372 -83.3414 74° East 321 369 11,800 -1,029 Descending Cleveland Center
Fri 08:19:43 PM 42.1686 -83.2531 64° Northeast 282 325 10,900 -983 Descending Cleveland Center
Fri 08:20:44 PM 42.2283 -83.1967 35° Northeast 243 280 9,900 -1,033 Descending Cleveland Center
Fri 08:21:45 PM 42.2917 -83.1572 25° Northeast 252 290 8,800 -885 Descending Cleveland Center
Fri 08:22:46 PM 42.3489 -83.1117 30° Northeast 241 277 8,100 -414 Descending Cleveland Center
Fri 08:23:41 PM 42.4064 -83.0661 30° Northeast 249 287 8,000  Descending Cleveland Center
Fri 08:24:42 PM 42.4508 -83.0258 34° Northeast 206 237 8,100 -393 Climbing Cleveland Center
Fri 08:25:43 PM 42.4964 -83.0472 341° North 166 191 7,200 -984 Descending Cleveland Center
Fri 08:26:44 PM 42.4931 -83.1061 266° West 157 181 6,100 -1,082 Descending Cleveland Center

Login

Don't have an account? Register now (free) for customized features, flight alerts, and more!